Time;durP1;ratioP1;P1;durP2;ratioP2;P2;SDS_P1;SDS_P2;PMS_P1;PMS_P2;Temp;Humidity;BMP_temperature;BMP_pressure;BME280_temperature;BME280_humidity;BME280_pressure;Samples;Min_cycle;Max_cycle;Signal;HPM_P1;HPM_P2
2022/05/05 00:01:37;;;;;;;10.87;9.87;;;;;;;10.36;71.67;95282.47;4934465;29;20235;-63
2022/05/05 00:04:03;;;;;;;10.53;9.53;;;;;;;10.36;71.46;95289.53;4966727;28;20228;-63
2022/05/05 00:06:29;;;;;;;11.43;9.03;;;;;;;10.27;71.34;95282.47;4945300;28;20291;-63
2022/05/05 00:08:55;;;;;;;10.03;9.00;;;;;;;10.32;71.21;95286.38;4947441;28;20344;-63
2022/05/05 00:14:23;;;;;;;11.73;9.13;;;;;;;10.23;71.11;95283.72;4948822;28;20240;-63
2022/05/05 00:16:52;;;;;;;14.50;9.90;;;;;;;10.12;71.45;95282.09;4959269;28;20232;-63
2022/05/05 00:19:17;;;;;;;10.87;9.77;;;;;;;10.07;71.39;95281.69;4953817;28;20240;-62
2022/05/05 00:21:43;;;;;;;9.30;8.50;;;;;;;10.01;71.49;95277.84;4960439;28;20231;-63
2022/05/05 00:24:09;;;;;;;10.60;9.40;;;;;;;10.04;71.47;95280.19;4952571;28;20221;-62
2022/05/05 00:26:34;;;;;;;10.03;8.43;;;;;;;10.14;70.77;95285.41;4957667;28;20233;-63
2022/05/05 00:29:00;;;;;;;10.87;9.13;;;;;;;10.03;70.73;95278.53;4953822;28;20233;-63
2022/05/05 00:31:26;;;;;;;8.60;7.80;;;;;;;10.00;70.51;95276.19;4962644;28;20251;-63
2022/05/05 00:33:51;;;;;;;10.90;7.93;;;;;;;9.94;70.28;95277.59;4974885;28;20225;-62
2022/05/05 00:36:17;;;;;;;7.37;6.67;;;;;;;9.81;69.95;95276.19;4949414;28;20257;-63
2022/05/05 00:38:42;;;;;;;7.90;7.10;;;;;;;9.83;69.85;95282.97;4953564;28;20232;-63
2022/05/05 00:41:08;;;;;;;7.90;7.10;;;;;;;9.90;70.30;95289.34;4951629;28;20345;-63
2022/05/05 00:43:35;;;;;;;8.87;6.60;;;;;;;9.90;70.10;95286.72;4943891;28;20236;-62
2022/05/05 00:46:02;;;;;;;6.67;5.93;;;;;;;9.96;69.36;95281.88;4962851;28;20284;-63
2022/05/05 00:48:27;;;;;;;7.90;5.70;;;;;;;9.99;69.14;95292.09;4956360;28;20231;-63
2022/05/05 00:50:54;;;;;;;6.77;6.17;;;;;;;9.94;69.17;95282.84;4963593;28;20221;-63
2022/05/05 00:53:19;;;;;;;7.33;6.50;;;;;;;9.91;69.41;95277.03;4951569;28;20228;-62
2022/05/05 00:55:46;;;;;;;7.03;6.33;;;;;;;9.81;69.90;95274.44;4938903;28;20250;-63
2022/05/05 00:58:14;;;;;;;7.00;6.33;;;;;;;9.71;70.01;95273.63;4966566;28;20243;-63
2022/05/05 01:00:39;;;;;;;10.50;6.97;;;;;;;9.75;70.23;95264.47;4963691;28;20510;-62
2022/05/05 01:03:09;;;;;;;7.63;6.43;;;;;;;9.71;69.71;95271.81;4974260;28;20208;-62
2022/05/05 01:05:37;;;;;;;7.90;6.80;;;;;;;9.66;69.82;95273.19;4976491;28;20275;-63
2022/05/05 01:08:04;;;;;;;8.10;7.23;;;;;;;9.71;69.99;95274.44;4971101;28;20232;-63
2022/05/05 01:10:30;;;;;;;8.63;6.90;;;;;;;9.68;69.85;95271.28;4949834;28;20223;-63
2022/05/05 01:12:55;;;;;;;8.07;7.27;;;;;;;9.63;69.54;95268.22;4978392;28;20231;-63
2022/05/05 01:15:22;;;;;;;8.43;6.80;;;;;;;9.70;69.42;95279.81;4973450;28;20266;-63
2022/05/05 01:17:47;;;;;;;7.70;6.93;;;;;;;9.71;69.69;95282.31;4978835;28;20319;-63
2022/05/05 01:20:18;;;;;;;8.87;7.93;;;;;;;9.68;70.05;95279.16;4973409;28;20292;-62
2022/05/05 01:22:45;;;;;;;9.23;8.20;;;;;;;9.62;70.40;95271.81;4990968;28;20255;-62
2022/05/05 01:28:13;;;;;;;10.00;8.70;;;;;;;9.45;70.43;95282.03;4969870;28;20343;-62
2022/05/05 01:30:40;;;;;;;9.17;8.27;;;;;;;9.46;70.56;95281.09;4970894;28;20226;-62
2022/05/05 01:33:22;;;;;;;9.40;8.33;;;;;;;9.49;70.73;95288.69;4976393;28;20215;-62
2022/05/05 01:35:58;;;;;;;9.37;8.33;;;;;;;9.49;70.43;95280.81;4972545;28;20327;-62
2022/05/05 01:38:47;;;;;;;7.90;7.10;;;;;;;9.38;70.60;95278.34;4979838;28;20228;-63
2022/05/05 01:41:14;;;;;;;11.03;7.10;;;;;;;9.47;70.33;95287.16;4987447;28;20268;-62
2022/05/05 01:43:43;;;;;;;10.20;7.37;;;;;;;9.43;70.63;95286.59;4981235;28;20231;-62
2022/05/05 01:46:08;;;;;;;8.70;7.03;;;;;;;9.33;70.71;95282.31;4974500;28;20262;-62
2022/05/05 01:48:34;;;;;;;8.03;7.17;;;;;;;9.29;70.55;95287.00;4970599;28;20272;-62
2022/05/05 01:51:01;;;;;;;6.87;6.20;;;;;;;9.25;70.15;95296.97;4972865;28;20211;-62
2022/05/05 01:53:27;;;;;;;11.80;7.00;;;;;;;9.24;70.74;95295.28;4986245;28;20232;-62
2022/05/05 01:55:52;;;;;;;7.70;6.27;;;;;;;9.33;70.27;95298.91;4972535;28;20216;-63
2022/05/05 01:58:19;;;;;;;8.97;6.40;;;;;;;9.36;70.24;95298.63;4967521;28;20235;-64
2022/05/05 02:00:44;;;;;;;7.37;6.60;;;;;;;9.39;70.02;95298.34;4982768;28;20282;-62
2022/05/05 02:03:12;;;;;;;7.93;6.47;;;;;;;9.29;70.41;95294.88;4977419;28;20203;-62
2022/05/05 02:05:42;;;;;;;7.43;6.63;;;;;;;9.24;70.47;95287.41;4974390;28;20278;-62
2022/05/05 02:08:09;;;;;;;9.93;7.17;;;;;;;9.14;71.46;95302.34;4975722;28;20259;-62
2022/05/05 02:10:35;;;;;;;9.67;8.10;;;;;;;9.36;70.60;95300.44;4990207;28;20269;-63
2022/05/05 02:13:00;;;;;;;9.80;8.37;;;;;;;9.28;70.09;95298.50;4970591;28;20244;-62
2022/05/05 02:15:27;;;;;;;11.43;7.90;;;;;;;9.20;70.17;95298.34;4973883;28;20216;-63
2022/05/05 02:17:53;;;;;;;8.90;7.80;;;;;;;8.96;71.16;95302.16;4975687;28;20235;-63
2022/05/05 02:20:19;;;;;;;9.93;8.13;;;;;;;8.93;71.69;95299.81;4970232;28;20263;-63
2022/05/05 02:22:44;;;;;;;9.93;7.90;;;;;;;9.13;69.60;95298.03;4960014;28;20224;-63
2022/05/05 02:25:10;;;;;;;12.47;8.77;;;;;;;9.22;69.83;95306.88;4953887;28;20224;-63
2022/05/05 02:27:53;;;;;;;12.67;8.13;;;;;;;9.24;69.51;95311.03;4951997;28;20217;-63
2022/05/05 02:30:21;;;;;;;11.73;8.07;;;;;;;9.12;69.75;95303.44;4965922;28;20216;-63
2022/05/05 02:32:47;;;;;;;9.67;8.77;;;;;;;9.15;69.97;95313.66;4982194;28;20311;-63
2022/05/05 02:35:13;;;;;;;9.57;8.30;;;;;;;9.23;69.77;95312.00;4985226;28;20326;-62
2022/05/05 02:40:24;;;;;;;9.07;8.27;;;;;;;8.95;70.93;95310.16;4968498;28;20251;-63
2022/05/05 02:42:50;;;;;;;8.70;7.83;;;;;;;9.07;70.61;95308.25;4972076;28;20228;-62
2022/05/05 02:45:15;;;;;;;9.60;7.87;;;;;;;9.22;69.55;95317.38;4967578;28;20229;-63
2022/05/05 02:47:41;;;;;;;14.60;7.93;;;;;;;9.23;69.37;95314.63;4978143;28;20224;-63
2022/05/05 02:50:07;;;;;;;9.57;8.03;;;;;;;9.11;70.32;95314.88;4986466;28;20236;-62
2022/05/05 02:52:32;;;;;;;10.20;8.23;;;;;;;9.11;70.33;95318.31;4972853;28;20307;-63
2022/05/05 02:54:58;;;;;;;9.23;7.97;;;;;;;9.05;70.60;95319.69;4963886;28;20235;-62
2022/05/05 02:57:24;;;;;;;9.30;7.50;;;;;;;9.11;70.39;95318.31;4959855;28;20216;-63
2022/05/05 02:59:54;;;;;;;9.90;7.50;;;;;;;9.08;70.49;95323.84;4967109;28;20219;-62
2022/05/05 03:02:20;;;;;;;10.73;8.33;;;;;;;9.11;70.27;95328.81;4967340;28;20220;-62
2022/05/05 03:04:46;;;;;;;11.73;10.57;;;;;;;9.12;70.72;95343.63;4969185;28;20232;-63
2022/05/05 03:07:11;;;;;;;11.40;10.30;;;;;;;9.12;70.75;95337.53;4991066;28;20308;-63
2022/05/05 03:09:39;;;;;;;11.47;10.17;;;;;;;9.07;71.02;95348.44;4963651;28;20212;-63
2022/05/05 03:12:05;;;;;;;14.53;11.20;;;;;;;9.17;71.22;95346.66;4969066;28;20231;-62
2022/05/05 03:14:30;;;;;;;12.83;11.53;;;;;;;9.18;71.14;95353.56;4965093;28;20233;-63
2022/05/05 03:16:56;;;;;;;13.27;11.97;;;;;;;9.20;71.08;95346.41;4956540;28;20229;-63
2022/05/05 03:19:21;;;;;;;13.17;11.87;;;;;;;9.12;71.12;95351.50;4952726;28;20235;-63
2022/05/05 03:21:47;;;;;;;13.07;11.50;;;;;;;9.13;71.63;95361.00;4947202;28;20224;-63
2022/05/05 03:24:12;;;;;;;13.43;12.03;;;;;;;9.11;71.61;95360.31;4951350;28;20209;-63
2022/05/05 03:26:38;;;;;;;13.33;11.93;;;;;;;9.22;71.15;95343.63;4960270;28;20248;-63
2022/05/05 03:29:04;;;;;;;18.27;12.43;;;;;;;9.27;71.11;95349.28;4941675;28;20288;-63
2022/05/05 03:31:30;;;;;;;13.50;12.00;;;;;;;9.37;70.73;95351.94;4951234;28;20221;-63
2022/05/05 03:33:56;;;;;;;13.93;11.20;;;;;;;9.30;70.94;95354.25;4954454;28;20256;-63
2022/05/05 03:36:23;;;;;;;13.87;11.50;;;;;;;9.30;70.98;95351.63;4948364;28;20313;-63
2022/05/05 03:38:49;;;;;;;12.93;11.40;;;;;;;9.27;71.22;95351.91;4961475;28;20276;-63
2022/05/05 03:41:14;;;;;;;12.03;10.70;;;;;;;9.29;71.48;95352.63;4963034;28;20233;-63
2022/05/05 03:43:40;;;;;;;14.60;11.43;;;;;;;9.33;71.15;95350.53;4949575;28;20249;-63
2022/05/05 03:46:05;;;;;;;17.60;11.20;;;;;;;9.32;71.39;95352.34;4956994;28;20247;-63
2022/05/05 03:48:31;;;;;;;13.97;12.40;;;;;;;9.27;71.68;95352.78;4962205;28;20225;-63
2022/05/05 03:50:57;;;;;;;14.40;12.97;;;;;;;9.40;71.66;95351.66;4959134;28;20223;-63
2022/05/05 03:53:22;;;;;;;15.90;13.37;;;;;;;9.35;71.90;95353.88;4957583;28;20220;-63
2022/05/05 03:55:47;;;;;;;30.03;16.03;;;;;;;9.34;72.22;95353.03;4958129;28;20223;-63
2022/05/05 03:58:13;;;;;;;18.23;15.17;;;;;;;9.34;72.00;95352.22;4967977;28;20291;-63
2022/05/05 04:00:38;;;;;;;32.93;17.83;;;;;;;9.45;71.66;95357.34;4946952;28;20208;-63
2022/05/05 04:05:48;;;;;;;25.77;17.73;;;;;;;9.48;71.90;95364.94;4969290;28;20235;-63
2022/05/05 04:08:14;;;;;;;21.07;15.90;;;;;;;9.51;71.85;95369.91;4963642;28;20241;-62
2022/05/05 04:10:40;;;;;;;22.43;17.17;;;;;;;9.39;72.22;95371.00;4943336;28;20233;-62
2022/05/05 04:13:05;;;;;;;16.17;12.03;;;;;;;9.46;71.54;95377.34;4951751;28;20228;-62
2022/05/05 04:15:32;;;;;;;20.53;12.73;;;;;;;9.52;70.56;95374.22;4964266;28;20294;-62
2022/05/05 04:17:57;;;;;;;18.77;13.73;;;;;;;9.58;70.42;95385.97;4966650;28;20200;-62
2022/05/05 04:20:23;;;;;;;19.27;15.23;;;;;;;9.66;70.89;95394.81;4954352;28;20481;-62
2022/05/05 04:22:49;;;;;;;25.83;18.17;;;;;;;9.31;72.92;95390.06;4950442;28;20229;-62
2022/05/05 04:25:16;;;;;;;29.37;19.30;;;;;;;9.53;72.02;95388.97;4956299;28;20233;-62
2022/05/05 04:27:43;;;;;;;23.77;18.47;;;;;;;9.52;72.53;95389.13;4950939;28;20208;-62
2022/05/05 04:30:09;;;;;;;27.60;19.07;;;;;;;9.60;72.06;95392.72;4967385;28;20356;-62
2022/05/05 04:32:35;;;;;;;31.03;19.93;;;;;;;9.57;72.10;95398.25;4964728;28;20314;-62
2022/05/05 04:35:01;;;;;;;30.20;21.30;;;;;;;9.58;72.27;95405.16;4955521;28;20239;-64
2022/05/05 04:37:28;;;;;;;38.77;20.73;;;;;;;9.61;72.20;95406.69;4950143;28;20232;-62
2022/05/05 04:39:53;;;;;;;58.77;20.97;;;;;;;9.74;71.98;95407.25;4969871;28;20343;-62
2022/05/05 04:42:18;;;;;;;41.83;21.10;;;;;;;9.58;72.30;95401.72;4964900;28;20193;-62
2022/05/05 04:44:44;;;;;;;35.20;20.57;;;;;;;9.76;72.17;95407.13;4942489;28;20229;-62
2022/05/05 04:47:09;;;;;;;35.03;22.30;;;;;;;9.76;71.68;95399.25;4956354;28;20231;-62
2022/05/05 04:49:35;;;;;;;34.03;23.60;;;;;;;9.63;72.46;95394.25;4947805;28;20233;-62
2022/05/05 04:52:00;;;;;;;26.40;21.73;;;;;;;9.75;72.51;95394.94;4946361;28;20221;-62
2022/05/05 04:54:25;;;;;;;25.30;20.87;;;;;;;9.85;73.04;95395.78;4952097;28;20209;-62
2022/05/05 04:56:51;;;;;;;29.87;22.47;;;;;;;9.97;72.13;95396.47;4943522;28;20257;-62
2022/05/05 04:59:16;;;;;;;27.30;21.83;;;;;;;9.94;71.88;95402.81;4956521;28;20235;-62
2022/05/05 05:01:42;;;;;;;27.40;21.63;;;;;;;10.06;71.53;95403.53;4962384;28;20235;-63
2022/05/05 05:04:07;;;;;;;27.67;21.87;;;;;;;10.07;71.20;95390.25;4955018;28;20220;-62
2022/05/05 05:06:34;;;;;;;25.80;21.17;;;;;;;10.18;70.71;95394.50;4942230;28;20219;-63
2022/05/05 05:08:59;;;;;;;28.83;21.63;;;;;;;10.19;70.56;95392.75;4963054;28;20217;-62
2022/05/05 05:11:25;;;;;;;28.37;22.13;;;;;;;10.18;70.48;95399.78;4960058;28;20221;-62
2022/05/05 05:13:50;;;;;;;27.57;22.30;;;;;;;10.09;71.06;95405.88;4964314;28;20217;-62
2022/05/05 05:16:16;;;;;;;29.50;22.30;;;;;;;10.15;70.92;95398.25;4959429;28;20284;-63
2022/05/05 05:18:41;;;;;;;30.33;23.07;;;;;;;10.18;71.20;95404.19;4943801;28;20204;-62
2022/05/05 05:21:07;;;;;;;32.20;22.77;;;;;;;10.25;71.03;95406.13;4961014;28;20223;-63
2022/05/05 05:23:32;;;;;;;30.07;23.00;;;;;;;9.80;71.85;95411.13;4952446;28;20233;-63
2022/05/05 05:25:58;;;;;;;28.47;23.13;;;;;;;9.92;72.35;95402.16;4956144;28;20228;-63
2022/05/05 05:28:24;;;;;;;32.27;24.40;;;;;;;10.13;71.52;95409.88;4959157;28;20244;-63
2022/05/05 05:30:49;;;;;;;28.13;22.90;;;;;;;10.25;70.88;95400.88;4964643;28;20227;-63
2022/05/05 05:33:15;;;;;;;29.77;23.97;;;;;;;10.24;70.84;95414.19;4969648;28;20337;-63
2022/05/05 05:35:40;;;;;;;33.40;22.90;;;;;;;10.24;71.51;95416.81;4958191;28;20228;-63
2022/05/05 05:38:06;;;;;;;27.90;23.33;;;;;;;10.34;70.61;95417.63;4943939;28;20267;-63
2022/05/05 05:40:32;;;;;;;28.53;22.57;;;;;;;10.32;70.43;95416.97;4951416;28;20225;-63
2022/05/05 05:42:58;;;;;;;27.63;23.60;;;;;;;10.22;71.17;95424.00;4953979;28;20229;-63
2022/05/05 05:45:24;;;;;;;32.90;23.50;;;;;;;10.49;70.48;95431.19;4958717;28;20220;-63
2022/05/05 05:47:50;;;;;;;26.53;21.87;;;;;;;10.69;69.85;95432.81;4952088;28;20214;-63
2022/05/05 05:50:15;;;;;;;30.23;22.83;;;;;;;10.49;70.48;95432.00;4953985;28;20270;-62
2022/05/05 05:52:41;;;;;;;29.00;21.77;;;;;;;10.78;69.60;95433.75;4946849;28;20223;-63
2022/05/05 05:55:07;;;;;;;24.33;20.98;;;;;;;10.84;68.78;95432.34;4958781;28;20227;-63
2022/05/05 05:57:32;;;;;;;25.60;21.33;;;;;;;10.90;68.17;95437.03;4966853;28;20231;-64
2022/05/05 05:59:58;;;;;;;24.97;20.93;;;;;;;11.01;67.18;95427.19;4966980;28;20204;-63
2022/05/05 06:05:07;;;;;;;23.48;20.98;;;;;;;11.39;66.16;95421.88;4944531;28;20336;-63
2022/05/05 06:07:33;;;;;;;23.63;19.77;;;;;;;11.58;65.22;95415.69;4960964;28;20288;-63
2022/05/05 06:09:58;;;;;;;26.90;21.25;;;;;;;11.77;64.62;95420.00;4957400;28;20584;-63
2022/05/05 06:12:24;;;;;;;29.03;21.33;;;;;;;11.64;64.60;95425.63;4948352;28;20200;-63
2022/05/05 06:14:49;;;;;;;28.47;22.77;;;;;;;11.41;65.90;95428.66;4966499;28;20213;-63
2022/05/05 06:17:15;;;;;;;30.30;24.45;;;;;;;11.57;65.85;95429.81;4966584;28;20229;-63
2022/05/05 06:19:41;;;;;;;27.63;23.30;;;;;;;11.44;65.81;95436.25;4963318;28;20264;-63
2022/05/05 06:22:07;;;;;;;29.40;23.97;;;;;;;11.03;68.15;95438.38;4957921;28;20220;-63
2022/05/05 06:24:32;;;;;;;27.63;23.97;;;;;;;11.43;67.38;95433.75;4946455;28;20212;-63
2022/05/05 06:26:58;;;;;;;29.23;24.02;;;;;;;11.25;67.28;95431.06;4954189;28;20220;-63
2022/05/05 06:29:25;;;;;;;28.17;25.10;;;;;;;11.13;67.49;95432.25;4947345;28;20269;-63
2022/05/05 06:31:51;;;;;;;30.47;26.13;;;;;;;11.30;67.71;95426.19;4963783;28;20232;-63
2022/05/05 06:34:16;;;;;;;28.73;25.57;;;;;;;11.31;68.33;95424.41;4954238;28;20261;-63
2022/05/05 06:36:42;;;;;;;30.57;24.17;;;;;;;11.59;67.17;95426.03;4955872;28;20212;-62
2022/05/05 06:39:10;;;;;;;29.17;23.57;;;;;;;11.77;66.38;95431.34;4961588;28;20203;-64
2022/05/05 06:41:35;;;;;;;25.83;23.03;;;;;;;11.87;64.66;95433.97;4957635;28;20221;-64
2022/05/05 06:44:01;;;;;;;26.40;23.53;;;;;;;12.13;64.03;95416.41;4953035;28;20228;-63
2022/05/05 06:46:27;;;;;;;29.33;24.13;;;;;;;12.18;64.14;95423.84;4955773;28;20231;-63
2022/05/05 06:48:53;;;;;;;29.33;23.55;;;;;;;12.49;63.74;95415.53;4969322;28;20228;-63
2022/05/05 06:51:19;;;;;;;28.10;23.00;;;;;;;12.57;62.97;95423.53;4947373;28;20209;-64
2022/05/05 06:53:44;;;;;;;26.20;21.00;;;;;;;12.59;61.86;95416.28;4950987;28;20229;-63
2022/05/05 06:56:10;;;;;;;27.40;22.23;;;;;;;12.14;63.63;95422.50;4953702;28;20217;-63
2022/05/05 06:58:35;;;;;;;27.53;24.37;;;;;;;11.96;65.02;95425.16;4963295;28;20337;-64
2022/05/05 07:03:45;;;;;;;27.20;24.07;;;;;;;12.05;65.70;95431.31;4944415;28;20228;-63
2022/05/05 07:06:10;;;;;;;28.43;24.20;;;;;;;12.47;64.60;95433.31;4960580;28;20209;-63
2022/05/05 07:11:23;;;;;;;28.10;23.80;;;;;;;12.65;63.11;95431.50;4947008;28;20274;-63
2022/05/05 07:13:49;;;;;;;25.60;22.67;;;;;;;12.70;62.86;95436.31;4951170;28;20216;-63
2022/05/05 07:16:15;;;;;;;26.65;23.85;;;;;;;12.56;63.10;95432.41;4945472;28;20237;-63
2022/05/05 07:18:41;;;;;;;26.87;22.90;;;;;;;12.49;63.86;95431.38;4959192;28;20232;-63
2022/05/05 07:21:06;;;;;;;24.40;21.53;;;;;;;12.51;64.43;95427.59;4953590;28;20217;-63
2022/05/05 07:23:32;;;;;;;27.97;22.33;;;;;;;12.45;64.17;95445.84;4962985;28;20224;-63
2022/05/05 07:25:57;;;;;;;24.77;21.27;;;;;;;12.54;63.84;95439.66;4962148;28;20232;-63
2022/05/05 07:28:23;;;;;;;28.10;23.35;;;;;;;12.58;63.63;95435.72;4965730;28;20239;-63
2022/05/05 07:30:50;;;;;;;27.60;22.15;;;;;;;12.56;64.05;95432.41;4970010;28;20244;-63
2022/05/05 07:33:16;;;;;;;28.95;22.42;;;;;;;12.66;63.55;95437.59;4956400;28;20269;-63
2022/05/05 07:35:42;;;;;;;29.55;23.15;;;;;;;12.63;63.75;95438.72;4959103;28;20229;-64
2022/05/05 07:38:07;;;;;;;30.60;24.60;;;;;;;12.54;63.56;95429.94;4955386;28;20231;-63
2022/05/05 07:40:33;;;;;;;26.15;23.33;;;;;;;12.58;63.50;95431.25;4955393;28;20314;-63
2022/05/05 07:42:58;;;;;;;28.55;23.17;;;;;;;12.67;63.70;95434.81;4959487;28;20240;-63
2022/05/05 07:45:23;;;;;;;26.10;23.50;;;;;;;12.67;64.71;95433.94;4956063;28;20280;-63
2022/05/05 07:47:49;;;;;;;25.48;21.65;;;;;;;12.80;63.36;95440.50;4951373;28;20211;-63
2022/05/05 07:50:15;;;;;;;24.73;20.73;;;;;;;12.90;63.10;95445.66;4971573;28;20929;-63
2022/05/05 07:52:41;;;;;;;28.90;20.87;;;;;;;12.95;62.72;95437.28;4945097;28;20224;-63
2022/05/05 07:55:07;;;;;;;25.80;18.85;;;;;;;13.02;62.44;95444.44;4941637;28;20259;-63
2022/05/05 07:57:41;;;;;;;21.33;19.00;;;;;;;13.03;62.26;95438.16;4945152;28;20217;-63
2022/05/05 08:00:07;;;;;;;23.13;19.15;;;;;;;13.03;62.26;95446.06;4952767;28;20244;-63
2022/05/05 08:02:35;;;;;;;21.23;17.75;;;;;;;13.11;62.17;95441.84;4958809;28;20224;-63
2022/05/05 08:05:00;;;;;;;22.73;18.35;;;;;;;13.17;61.81;95449.94;4956572;28;20232;-63
2022/05/05 08:07:26;;;;;;;21.08;18.85;;;;;;;13.28;62.53;95448.03;4952580;28;20229;-63
2022/05/05 08:09:51;;;;;;;19.77;16.75;;;;;;;13.14;61.46;95447.63;4945132;28;20221;-64
2022/05/05 08:12:17;;;;;;;18.75;16.77;;;;;;;13.34;61.57;95448.25;4952875;28;20284;-63
2022/05/05 08:14:42;;;;;;;22.80;15.90;;;;;;;13.14;61.65;95447.63;4947332;28;20239;-64
2022/05/05 08:17:08;;;;;;;19.15;14.95;;;;;;;13.27;59.81;95456.97;4957390;28;20232;-64
2022/05/05 08:19:34;;;;;;;16.05;14.43;;;;;;;13.25;59.43;95449.16;4950891;28;20244;-64
2022/05/05 08:21:59;;;;;;;15.40;12.88;;;;;;;13.33;59.38;95441.31;4963048;28;20272;-63
2022/05/05 08:29:53;;;;;;;18.35;14.52;;;;;;;13.58;58.44;95439.59;4955863;28;20319;-62
2022/05/05 08:32:18;;;;;;;18.10;14.48;;;;;;;13.57;58.61;95443.22;4965271;28;20224;-62
2022/05/05 08:34:44;;;;;;;17.02;14.73;;;;;;;13.62;58.62;95438.28;4957049;28;20236;-63
2022/05/05 08:37:09;;;;;;;16.73;14.05;;;;;;;13.66;58.99;95446.75;4947559;28;20217;-64
2022/05/05 08:39:35;;;;;;;18.08;15.68;;;;;;;13.78;57.98;95437.50;4957124;28;20205;-63
2022/05/05 08:42:03;;;;;;;15.18;13.57;;;;;;;13.85;57.92;95440.34;4965489;28;20297;-64
2022/05/05 08:44:29;;;;;;;15.57;13.45;;;;;;;13.98;57.57;95431.94;4956792;28;20228;-64
2022/05/05 08:46:55;;;;;;;17.33;14.52;;;;;;;14.01;59.25;95428.97;4961605;28;20250;-64
2022/05/05 08:49:25;;;;;;;19.08;14.52;;;;;;;14.15;58.44;95430.16;4951797;28;20234;-62
2022/05/05 08:51:54;;;;;;;18.08;14.20;;;;;;;14.29;57.82;95425.03;4962259;28;20310;-64
2022/05/05 08:54:23;;;;;;;20.52;15.15;;;;;;;14.40;57.55;95430.97;4973450;28;20210;-62
2022/05/05 08:56:50;;;;;;;16.10;14.27;;;;;;;14.36;57.25;95429.69;4974302;28;20248;-64
2022/05/05 08:59:17;;;;;;;14.20;12.68;;;;;;;14.42;56.82;95429.84;4977723;28;20327;-64
2022/05/05 09:01:42;;;;;;;17.17;13.10;;;;;;;14.53;56.16;95426.06;4990376;28;20250;-63
2022/05/05 09:04:08;;;;;;;16.75;13.20;;;;;;;14.68;56.47;95432.34;4969351;28;20254;-64
2022/05/05 09:06:42;;;;;;;13.43;12.00;;;;;;;14.76;56.27;95431.50;4966288;28;20192;-64
2022/05/05 09:09:34;;;;;;;15.85;11.50;;;;;;;14.91;54.65;95431.63;4961668;28;20219;-64
2022/05/05 09:12:10;;;;;;;13.70;11.32;;;;;;;14.95;54.72;95423.19;4964970;28;20307;-64
2022/05/05 09:14:38;;;;;;;14.05;10.43;;;;;;;15.13;53.79;95425.66;4959406;28;20235;-64
2022/05/05 09:17:05;;;;;;;12.23;10.48;;;;;;;15.29;53.66;95426.56;4956992;28;20259;-65
2022/05/05 09:19:35;;;;;;;14.20;10.63;;;;;;;15.46;52.81;95427.38;4959880;28;20226;-62
2022/05/05 09:22:03;;;;;;;13.95;10.85;;;;;;;15.52;52.04;95416.88;4949455;28;20231;-64
2022/05/05 09:24:35;;;;;;;12.50;9.45;;;;;;;15.57;52.97;95421.69;4949590;28;20247;-63
2022/05/05 09:27:33;;;;;;;11.90;9.95;;;;;;;15.75;52.40;95424.94;4961898;28;20273;-62
2022/05/05 09:30:13;;;;;;;13.00;8.93;;;;;;;15.80;49.68;95409.34;4946219;28;20230;-61
2022/05/05 09:32:46;;;;;;;13.52;8.80;;;;;;;15.95;50.10;95403.28;4936875;28;20308;-61
2022/05/05 09:35:16;;;;;;;8.90;7.60;;;;;;;16.07;47.38;95408.00;4954365;28;20255;-62
2022/05/05 09:37:54;;;;;;;8.63;7.65;;;;;;;16.07;47.50;95408.00;4969676;28;20239;-63
2022/05/05 09:40:22;;;;;;;9.27;8.00;;;;;;;16.41;48.99;95403.28;4952474;28;20263;-64
2022/05/05 09:42:52;;;;;;;12.57;7.47;;;;;;;16.51;49.70;95409.97;4961342;28;21020;-69
2022/05/05 09:45:32;;;;;;;10.70;7.57;;;;;;;16.71;49.06;95406.84;4967020;28;20209;-64
2022/05/05 09:47:59;;;;;;;10.32;7.22;;;;;;;16.87;47.81;95408.56;4972350;28;20238;-62
2022/05/05 09:50:28;;;;;;;7.70;6.90;;;;;;;16.99;46.92;95407.09;4968322;28;20224;-63
2022/05/05 09:58:39;;;;;;;4.13;3.60;;;;;;;17.38;39.88;95398.84;4957365;28;20319;-69
2022/05/05 10:01:10;;;;;;;3.63;3.33;;;;;;;17.50;39.23;95399.19;4953159;28;20223;-64
2022/05/05 10:04:00;;;;;;;4.75;4.00;;;;;;;17.66;42.26;95398.16;4945139;28;20220;-66
2022/05/05 10:06:34;;;;;;;7.68;4.60;;;;;;;17.86;43.21;95393.13;4957672;28;20268;-67
2022/05/05 10:09:05;;;;;;;4.78;4.38;;;;;;;18.01;41.98;95387.75;4972212;28;20307;-67
2022/05/05 10:11:31;;;;;;;5.47;4.35;;;;;;;18.00;41.39;95392.25;4958718;28;20220;-63
2022/05/05 10:14:00;;;;;;;7.82;5.43;;;;;;;18.08;42.75;95383.34;4969453;28;20607;-63
2022/05/05 10:16:26;;;;;;;6.40;4.65;;;;;;;18.36;43.43;95386.03;4952524;28;20890;-63
2022/05/05 10:18:52;;;;;;;7.78;3.92;;;;;;;18.45;39.18;95384.91;4951757;28;20251;-63
2022/05/05 10:21:39;;;;;;;3.55;2.80;;;;;;;18.38;38.79;95380.53;4957135;28;20204;-60
2022/05/05 10:24:09;;;;;;;4.43;3.30;;;;;;;18.64;40.79;95388.75;4953834;28;20224;-60
2022/05/05 10:26:35;;;;;;;3.88;3.10;;;;;;;18.71;37.80;95380.81;4974713;28;20248;-60
2022/05/05 10:29:02;;;;;;;3.30;2.83;;;;;;;18.90;37.38;95390.84;4954650;28;20920;-60
2022/05/05 10:31:30;;;;;;;3.33;3.03;;;;;;;19.09;37.80;95399.16;4948440;28;20269;-59
2022/05/05 10:34:02;;;;;;;2.85;2.47;;;;;;;19.06;37.86;95395.03;4964393;28;20895;-59
2022/05/05 10:36:30;;;;;;;3.42;2.40;;;;;;;19.17;35.84;95397.16;4972683;28;20252;-59
2022/05/05 10:38:57;;;;;;;2.78;2.38;;;;;;;19.39;36.99;95395.22;4969957;28;20205;-59
2022/05/05 10:41:35;;;;;;;4.40;2.10;;;;;;;19.46;36.51;95391.75;4978796;28;20223;-60
2022/05/05 10:44:16;;;;;;;2.72;2.53;;;;;;;19.61;36.16;95385.28;4974225;28;20231;-64
2022/05/05 10:47:03;;;;;;;4.80;2.55;;;;;;;19.80;36.28;95383.72;4975421;28;20224;-63
2022/05/05 10:49:32;;;;;;;3.67;2.30;;;;;;;19.99;35.58;95382.19;4965730;28;20235;-63
2022/05/05 10:52:09;;;;;;;2.97;2.40;;;;;;;19.95;35.31;95391.59;4964318;28;20235;-59
2022/05/05 10:54:37;;;;;;;2.97;2.47;;;;;;;20.09;35.47;95387.13;4969669;28;20203;-64
2022/05/05 10:57:25;;;;;;;2.10;1.58;;;;;;;20.27;33.17;95391.88;4987608;28;20199;-63
2022/05/05 11:00:10;;;;;;;3.05;1.90;;;;;;;20.32;33.50;95386.75;4965978;28;20235;-64
2022/05/05 11:02:36;;;;;;;2.33;2.13;;;;;;;20.39;33.68;95384.09;4973109;28;20227;-64
2022/05/05 11:05:20;;;;;;;3.95;2.10;;;;;;;20.45;33.07;95383.28;4974885;28;20259;-68
2022/05/05 11:07:49;;;;;;;3.38;1.88;;;;;;;20.57;32.53;95383.53;4975056;28;20231;-63
2022/05/05 11:10:45;;;;;;;3.25;2.00;;;;;;;20.86;32.67;95382.28;4986695;28;20289;-62
2022/05/05 11:13:39;;;;;;;1.98;1.88;;;;;;;21.17;32.53;95384.31;4982215;28;20278;-62
2022/05/05 11:22:09;;;;;;;3.58;2.30;;;;;;;20.43;32.22;95374.66;4969386;28;20240;-67
2022/05/05 11:24:36;;;;;;;2.95;2.22;;;;;;;20.75;33.13;95377.56;4968385;28;20207;-68
2022/05/05 11:27:01;;;;;;;5.15;2.47;;;;;;;20.94;33.05;95376.72;4954225;28;20208;-63
2022/05/05 11:29:29;;;;;;;7.70;2.60;;;;;;;20.99;32.22;95382.28;4969511;28;20235;-64
2022/05/05 11:31:59;;;;;;;3.17;2.10;;;;;;;20.54;31.16;95391.94;4967673;28;20267;-64
2022/05/05 11:34:36;;;;;;;3.95;1.70;;;;;;;20.50;31.90;95386.13;4961096;28;20227;-64
2022/05/05 11:37:04;;;;;;;3.15;1.90;;;;;;;20.74;32.16;95387.41;4972571;28;20215;-64
2022/05/05 11:39:31;;;;;;;4.68;2.72;;;;;;;21.07;32.20;95387.41;4973401;28;20235;-64
2022/05/05 11:42:03;;;;;;;3.08;1.88;;;;;;;21.42;30.29;95381.81;4967892;28;20280;-64
2022/05/05 11:44:29;;;;;;;4.40;2.10;;;;;;;21.81;30.08;95382.69;4984860;28;20307;-63
2022/05/05 11:46:57;;;;;;;1.77;1.67;;;;;;;22.10;28.61;95378.63;4971636;28;20312;-62
2022/05/05 11:49:24;;;;;;;3.08;1.70;;;;;;;21.97;29.04;95387.56;4967013;28;20375;-63
2022/05/05 11:51:51;;;;;;;4.15;2.85;;;;;;;22.01;29.66;95383.41;4965126;28;20232;-64
2022/05/05 11:54:28;;;;;;;4.57;3.25;;;;;;;21.68;29.05;95377.38;4972581;28;20211;-64
2022/05/05 11:56:54;;;;;;;2.00;1.80;;;;;;;21.40;28.48;95375.84;4975738;28;20239;-68
2022/05/05 12:02:16;;;;;;;5.40;2.45;;;;;;;21.60;29.92;95365.09;4957918;28;20274;-63
2022/05/05 12:04:52;;;;;;;3.38;2.00;;;;;;;21.98;30.33;95362.44;4977728;28;20233;-63
2022/05/05 12:07:20;;;;;;;2.67;1.90;;;;;;;22.32;29.24;95362.25;4972910;28;20556;-63
2022/05/05 12:09:54;;;;;;;4.47;2.10;;;;;;;22.33;29.24;95353.19;4964173;28;20228;-63